Airfield :
LOGIN :

Register | Disclaimer

   EN    FR    IT 

 










Legend :    VFR   Marginal VFR   IFR   Intensive IFR   Very Intensive IFR
Visi :
Ceiling :
>= 8 km
>= 3000ft
5 to 8 km
1000 to 3000 ft
1500m to 5 km
500 to 1000 ft
800 to 1500m
200 to 500 ft
< 800m
< 200 ft
Symbols :   Thunderstorms  Fog  Heavy snow  Heavy precipitations  Wind > 20 kt
SIGMETs :     Misc.  Thunderstorms  Icing  Turbulence  Mountain Waves  Volcanic Ashes







- Airport Elevation : 157 ft
- IATA code : SXF


EDDB - Berlin Schönefeld

CURRENT METAR :
  • 250150Z 28005KT 9999 BKN009 13/12 Q1018 TEMPO BKN003

EXPIRED METARs :
  • 250120Z 28005KT 9999 SCT008 12/11 Q1018 TEMPO BKN007
  • 250050Z 27005KT 9999 SCT007 BKN072 12/12 Q1018 TEMPO BKN007
  • 250020Z 27006KT 9999 SCT008 BKN044 13/12 Q1018 TEMPO BKN007
  • 242350Z 26004KT 9999 BKN007 13/12 Q1018 TEMPO BKN015
  • 242320Z 23003KT 9999 BKN007 13/13 Q1018 TEMPO BKN015

TAF TAF EDDB
Valid from the 25 at 00:00 until the 26 at 00:00 UTC


242300Z 2500/2524 27005KT 9999 SCT020
TEMPO 2500/2507 2500 MIFG BKN008
PROB30
TEMPO 2503/2506 0500 FG BKN001
BECMG 2506/2509 28010KT
BECMG 2517/2520 30005KT
No reported NOTAMs for that airfield.



MET'MAP, your aeronautical weather chart ! - Copyright ORBIFLY December 2007 - Disclaimer

ORBIFLY MET'MAP TEAM :

Programming & Development : Alexandra Zaïnal
Concept & Development : Baudouin d'Aumeries
Co-Development & Prog : Marc-Olivier Méhu
Technical & hardware support : Manuel Goepfert

Contact : metmap@orbifly.com




SOURCES & CREDITS :

   NOAA